Medlin's Ranch, Nevada Weather observations

Data are for observation ending at time listed.
 Day   Time    Ave.   Ave.  Ave.  Vector   Max.   Stn.    Total    Solar   Ave.  
  of    of     Air    Rel.  Wind   Wind    Wind   Baro.  Precip.   Rad.    Soil  
Year   Day     Temp.  Hum.  Speed  Dir.    Gust   Pres.                    Temp. 
2014   (PST)    F      %     mph   deg.    mph     mb.     in.     W/m2     F   
------------------------------------------------------------------------------
 331    9:00   48.2    26    1.7   335      4.7    873     0.00     229    42.5
 331   10:00   51.9    23    1.0   101      2.9    873     0.00     257    43.5
 331   11:00   55.1    21    2.2   104      4.7    872     0.00     283    45.1
 331   12:00   55.9    20    2.6   105      5.3    871     0.00     321    46.8
 331   13:00   57.8    18    1.4    97      4.3    870     0.00     313    48.4
 331   14:00   59.3    18    1.4    94      3.4    870     0.00     248    49.9
 331   15:00   59.9    17    1.3   101      2.9    869     0.00     193    50.9
 331   16:00   58.9    18    1.5   141      3.5    869     0.00      87    51.5
 331   17:00   51.1    22    1.5   220      4.2    869     0.00       6    51.5
 331   18:00   43.9    27    3.6   288      4.9    869     0.00       0    50.7
 331   19:00   42.3    29    4.2   270      5.2    869     0.00       0    49.7
 331   20:00   37.8    32    3.2   246      5.5    869     0.00       0    48.7
 331   21:00   36.8    34    3.6   268      5.5    868     0.00       0    47.7
 331   22:00   34.9    36    4.2   263      5.6    868     0.00       0    46.7
 331   23:00   36.8    34    4.7   262      5.9    868     0.00       0    45.9
 332    0:00   35.7    35    3.4   252      5.5    868     0.00       0    45.2
 332    1:00   33.0    39    2.4   256      5.5    867     0.00       0    44.6
 332    2:00   31.5    41    3.7   254      4.9    867     0.00       0    44.0
 332    3:00   31.6    42    4.4   252      5.4    867     0.00       0    43.3
 332    4:00   30.4    44    3.6   248      4.8    866     0.00       0    42.7
 332    5:00   29.3    45    3.5   252      5.1    866     0.00       0    42.2
 332    6:00   28.8    46    3.8   250      5.4    866     0.00       0    41.6
 332    7:00   28.4    46    4.1   252      5.7    866     0.00       6    41.1
 332    8:00   37.3    36    2.0   250      5.1    866     0.00     123    40.6

Return to Medlin's Ranch, Nevada graphs page.


Western Regional Climate Center,wrcc@dri.edu